Time;durP1;ratioP1;P1;durP2;ratioP2;P2;SDS_P1;SDS_P2;PMS_P1;PMS_P2;Temp;Humidity;BMP_temperature;BMP_pressure;BME280_temperature;BME280_humidity;BME280_pressure;Samples;Min_cycle;Max_cycle;Signal;HPM_P1;HPM_P2
2023/05/05 00:00:52;;;;;;;4.57;2.03;;;10.40;88.80;;;;;;5073381;28;20562;-47
2023/05/05 00:03:20;;;;;;;5.35;2.13;;;10.60;89.50;;;;;;5073131;28;20557;-46
2023/05/05 00:05:47;;;;;;;6.30;2.55;;;11.10;92.70;;;;;;5073106;28;20032;-50
2023/05/05 00:08:13;;;;;;;5.00;2.60;;;10.80;93.80;;;;;;5073255;28;20146;-47
2023/05/05 00:10:38;;;;;;;7.43;3.08;;;11.00;93.60;;;;;;5073496;28;20143;-48
2023/05/05 00:13:05;;;;;;;5.63;2.17;;;10.80;93.30;;;;;;5073262;28;20394;-48
2023/05/05 00:15:31;;;;;;;4.78;2.65;;;10.80;93.70;;;;;;5073418;28;20185;-47
2023/05/05 00:17:56;;;;;;;6.22;2.58;;;10.80;93.80;;;;;;5073014;28;20538;-46
2023/05/05 00:20:22;;;;;;;3.97;2.13;;;10.80;93.90;;;;;;5072885;28;20040;-47
2023/05/05 00:22:48;;;;;;;6.88;2.33;;;10.70;94.00;;;;;;5073061;28;20040;-46
2023/05/05 00:25:13;;;;;;;4.43;2.10;;;11.20;94.40;;;;;;5073051;28;20050;-48
2023/05/05 00:27:39;;;;;;;10.20;3.70;;;10.50;94.40;;;;;;5072763;28;20484;-48
2023/05/05 00:30:05;;;;;;;3.30;2.08;;;10.60;94.50;;;;;;5071428;28;20044;-48
2023/05/05 00:32:31;;;;;;;5.22;2.17;;;10.60;94.30;;;;;;5054788;28;20055;-46
2023/05/05 00:34:57;;;;;;;6.95;2.20;;;10.60;94.60;;;;;;5072823;28;20048;-48
2023/05/05 00:37:22;;;;;;;4.25;1.83;;;10.80;94.70;;;;;;5072982;28;20040;-51
2023/05/05 00:39:49;;;;;;;3.97;1.83;;;11.40;94.90;;;;;;5072605;28;20123;-46
2023/05/05 00:42:15;;;;;;;4.18;2.20;;;11.10;94.80;;;;;;5072660;28;20115;-47
2023/05/05 00:44:41;;;;;;;3.90;1.75;;;11.20;94.60;;;;;;5072644;28;20033;-48
2023/05/05 00:47:11;;;;;;;4.97;2.20;;;11.20;94.50;;;;;;5072455;28;20044;-48
2023/05/05 00:49:38;;;;;;;5.70;2.25;;;11.30;94.50;;;;;;5072936;28;20133;-46
2023/05/05 00:52:05;;;;;;;6.10;2.28;;;11.40;94.20;;;;;;5072762;28;20043;-48
2023/05/05 00:54:35;;;;;;;4.95;1.90;;;11.60;93.50;;;;;;5072760;28;20070;-51
2023/05/05 00:57:04;;;;;;;4.82;2.13;;;11.20;91.80;;;;;;5071926;28;20040;-50
2023/05/05 00:59:31;;;;;;;4.03;1.73;;;11.80;92.40;;;;;;5071807;28;20036;-50
2023/05/05 01:01:57;;;;;;;4.47;1.80;;;12.00;92.50;;;;;;5072287;28;20048;-46
2023/05/05 01:04:25;;;;;;;6.13;2.08;;;11.70;92.60;;;;;;5065420;28;20386;-45
2023/05/05 01:07:14;;;;;;;5.55;2.10;;;11.60;92.40;;;;;;5052183;28;20075;-47
2023/05/05 01:10:03;;;;;;;6.78;2.10;;;11.30;91.80;;;;;;5052495;28;20049;-48
2023/05/05 01:12:52;;;;;;;5.22;2.25;;;11.30;93.40;;;;;;5052165;28;20041;-47
2023/05/05 01:15:30;;;;;;;3.65;2.33;;;11.20;92.70;;;;;;5052342;28;20040;-47
2023/05/05 01:18:51;;;;;;;3.33;2.15;;;11.20;92.80;;;;;;5052242;28;20041;-46
2023/05/05 01:21:41;;;;;;;5.28;2.50;;;11.10;93.50;;;;;;4990045;28;20137;-47
2023/05/05 01:24:42;;;;;;;5.53;2.50;;;11.30;94.80;;;;;;5048997;28;20122;-48
2023/05/05 01:27:29;;;;;;;5.82;2.30;;;10.80;94.50;;;;;;5052894;28;20056;-46
2023/05/05 01:30:07;;;;;;;6.07;2.50;;;10.70;94.80;;;;;;5051883;28;20551;-46
2023/05/05 01:32:41;;;;;;;5.05;2.70;;;10.90;95.90;;;;;;5051702;28;20045;-46
2023/05/05 01:35:27;;;;;;;4.55;2.10;;;10.90;96.10;;;;;;5052132;28;20033;-46
2023/05/05 01:38:07;;;;;;;7.35;2.63;;;10.50;95.40;;;;;;5051746;28;20487;-47
2023/05/05 01:40:45;;;;;;;4.35;1.95;;;10.80;96.30;;;;;;5051608;28;20052;-46
2023/05/05 01:43:14;;;;;;;8.30;2.22;;;11.40;96.40;;;;;;5051513;28;20037;-47
2023/05/05 01:45:42;;;;;;;5.07;2.65;;;11.00;96.40;;;;;;5051349;28;20494;-46
2023/05/05 01:48:11;;;;;;;7.53;2.75;;;10.70;96.30;;;;;;5051484;28;20049;-47
2023/05/05 01:50:41;;;;;;;5.97;2.65;;;11.00;96.50;;;;;;5051504;28;20043;-46
2023/05/05 01:53:08;;;;;;;6.88;2.33;;;10.90;96.60;;;;;;5051485;28;20076;-48
2023/05/05 01:55:36;;;;;;;5.82;2.28;;;11.00;96.70;;;;;;5051540;28;20045;-45
2023/05/05 01:58:04;;;;;;;5.28;2.03;;;11.60;96.90;;;;;;5051210;28;20041;-47
2023/05/05 02:00:32;;;;;;;3.75;1.88;;;11.10;96.70;;;;;;5051246;28;20041;-46
2023/05/05 02:02:59;;;;;;;3.88;2.03;;;11.30;96.60;;;;;;5051295;28;20041;-46
2023/05/05 02:05:26;;;;;;;4.55;2.03;;;11.20;96.40;;;;;;5051068;28;20052;-46
2023/05/05 02:07:57;;;;;;;6.38;2.08;;;11.70;96.60;;;;;;5051132;28;20503;-47
2023/05/05 02:10:23;;;;;;;5.93;2.38;;;10.90;96.20;;;;;;5050597;28;20377;-46
2023/05/05 02:12:50;;;;;;;5.20;2.28;;;10.90;96.10;;;;;;5050746;28;20040;-48
2023/05/05 02:15:17;;;;;;;4.70;2.47;;;11.30;96.30;;;;;;5050907;28;20100;-47
2023/05/05 02:17:45;;;;;;;6.85;2.30;;;10.90;96.20;;;;;;5051015;28;20068;-47
2023/05/05 02:20:12;;;;;;;6.38;2.35;;;11.30;96.30;;;;;;5050930;28;20052;-46
2023/05/05 02:22:39;;;;;;;5.97;2.55;;;10.90;96.20;;;;;;5050964;28;20772;-47
2023/05/05 02:25:05;;;;;;;8.13;2.55;;;11.30;96.30;;;;;;5051222;28;20040;-46
2023/05/05 02:27:33;;;;;;;4.30;2.33;;;10.90;96.00;;;;;;5050784;28;20103;-47
2023/05/05 02:30:05;;;;;;;6.47;2.30;;;11.30;96.60;;;;;;5042964;28;20090;-47
2023/05/05 02:32:33;;;;;;;4.47;2.75;;;10.90;96.20;;;;;;5050918;28;20047;-46
2023/05/05 02:35:14;;;;;;;6.13;2.30;;;11.00;96.20;;;;;;5042600;28;20044;-48
2023/05/05 02:37:44;;;;;;;3.97;1.92;;;11.00;95.30;;;;;;5050404;28;20763;-45
2023/05/05 02:40:12;;;;;;;6.25;2.67;;;11.40;96.30;;;;;;5050482;28;20041;-45
2023/05/05 02:42:41;;;;;;;4.63;2.10;;;10.90;96.10;;;;;;5050549;28;20063;-47
2023/05/05 02:45:11;;;;;;;4.15;2.95;;;11.60;96.40;;;;;;5050669;28;20048;-47
2023/05/05 02:47:37;;;;;;;3.55;2.08;;;10.90;96.30;;;;;;5050372;28;20033;-46
2023/05/05 02:50:05;;;;;;;5.72;2.22;;;11.20;96.30;;;;;;5050331;28;20045;-46
2023/05/05 02:52:31;;;;;;;6.72;2.22;;;10.80;96.10;;;;;;5050569;28;20128;-48
2023/05/05 02:54:59;;;;;;;4.38;2.42;;;11.20;96.50;;;;;;5050532;28;20127;-47
2023/05/05 02:58:02;;;;;;;5.75;2.72;;;11.40;96.70;;;;;;5050292;28;20070;-49
2023/05/05 03:00:57;;;;;;;8.40;2.25;;;10.70;95.80;;;;;;5034827;28;20056;-48
2023/05/05 03:03:40;;;;;;;6.25;2.85;;;11.00;96.80;;;;;;5028859;28;20531;-46
2023/05/05 03:06:13;;;;;;;6.93;2.40;;;11.10;96.80;;;;;;5023299;28;20496;-49
2023/05/05 03:08:51;;;;;;;5.65;2.40;;;11.10;96.90;;;;;;5030122;28;20041;-45
2023/05/05 03:11:31;;;;;;;7.78;3.75;;;11.50;97.10;;;;;;5030233;28;20045;-47
2023/05/05 03:14:09;;;;;;;5.68;2.25;;;11.00;97.10;;;;;;5030410;28;20084;-49
2023/05/05 03:16:37;;;;;;;7.85;3.55;;;11.00;97.10;;;;;;5030215;28;20087;-48
2023/05/05 03:19:04;;;;;;;4.22;2.58;;;10.90;97.00;;;;;;5029982;28;20045;-46
2023/05/05 03:21:31;;;;;;;4.80;2.78;;;11.30;97.20;;;;;;5031671;28;20042;-47
2023/05/05 03:23:57;;;;;;;6.20;3.28;;;11.00;97.20;;;;;;5034465;28;20385;-48
2023/05/05 03:26:23;;;;;;;4.57;2.45;;;11.10;97.20;;;;;;5036226;28;20456;-48
2023/05/05 03:28:49;;;;;;;9.25;3.22;;;10.80;97.10;;;;;;5054194;28;20080;-46
2023/05/05 03:31:17;;;;;;;5.57;2.83;;;11.00;97.30;;;;;;5054253;28;20124;-47
2023/05/05 03:33:42;;;;;;;6.60;2.55;;;10.80;97.30;;;;;;5053739;28;20526;-50
2023/05/05 03:36:09;;;;;;;6.95;3.42;;;10.90;97.40;;;;;;5053516;28;20080;-46
2023/05/05 03:38:35;;;;;;;6.65;3.13;;;10.40;97.40;;;;;;5053864;28;20072;-47
2023/05/05 03:41:02;;;;;;;5.57;2.72;;;10.80;97.60;;;;;;5054138;28;20076;-47
2023/05/05 03:43:28;;;;;;;4.22;3.00;;;11.00;97.90;;;;;;5053645;28;20373;-47
2023/05/05 03:45:54;;;;;;;4.22;2.97;;;11.00;97.80;;;;;;5053742;28;20033;-46
2023/05/05 03:48:19;;;;;;;7.57;3.45;;;10.20;96.70;;;;;;5051836;28;20063;-45
2023/05/05 03:50:45;;;;;;;8.30;3.58;;;10.60;96.90;;;;;;5053483;28;20037;-50
2023/05/05 03:53:11;;;;;;;6.32;3.40;;;10.30;98.70;;;;;;5052596;28;20124;-47
2023/05/05 03:55:36;;;;;;;5.80;3.47;;;10.40;99.50;;;;;;5051575;28;20106;-46
2023/05/05 03:58:02;;;;;;;8.77;4.03;;;10.00;99.90;;;;;;5051861;28;20509;-46
2023/05/05 04:00:27;;;;;;;6.65;3.35;;;9.80;90.80;;;;;;5052940;28;20080;-46
2023/05/05 04:02:53;;;;;;;7.10;4.25;;;10.50;91.30;;;;;;5053009;28;20045;-46
2023/05/05 04:05:21;;;;;;;7.25;3.45;;;9.80;91.20;;;;;;5067510;28;20537;-51
2023/05/05 04:07:47;;;;;;;5.82;2.80;;;9.70;91.30;;;;;;5073381;28;20120;-46
2023/05/05 04:10:12;;;;;;;5.43;4.18;;;9.80;91.50;;;;;;5073185;28;20116;-46
2023/05/05 04:12:38;;;;;;;6.57;3.20;;;10.70;91.90;;;;;;5073246;28;20102;-45
2023/05/05 04:15:05;;;;;;;7.63;3.20;;;9.80;91.90;;;;;;5072865;28;20035;-46
2023/05/05 04:17:31;;;;;;;7.53;3.78;;;9.90;92.00;;;;;;5072986;28;20080;-46
2023/05/05 04:19:57;;;;;;;7.93;3.40;;;10.40;92.30;;;;;;5072823;28;20087;-48
2023/05/05 04:22:22;;;;;;;7.43;3.63;;;10.70;92.40;;;;;;5072881;28;20057;-47
2023/05/05 04:24:48;;;;;;;8.95;3.65;;;9.90;92.30;;;;;;5072787;28;20083;-46
2023/05/05 04:27:13;;;;;;;7.72;3.55;;;10.90;92.70;;;;;;5072733;28;20403;-47
2023/05/05 04:29:39;;;;;;;7.38;3.22;;;10.50;92.70;;;;;;5072890;28;20057;-47
2023/05/05 04:32:05;;;;;;;5.57;3.90;;;10.00;92.80;;;;;;5072467;28;20471;-50
2023/05/05 04:34:31;;;;;;;9.13;4.22;;;10.10;92.90;;;;;;5072729;28;20519;-48
2023/05/05 04:36:57;;;;;;;6.55;4.47;;;10.00;94.70;;;;;;5072831;28;20108;-48
2023/05/05 04:39:22;;;;;;;9.38;5.07;;;10.00;96.10;;;;;;5072647;28;20033;-47
2023/05/05 04:41:48;;;;;;;12.88;5.32;;;9.80;97.20;;;;;;5072816;28;20044;-47
2023/05/05 04:44:14;;;;;;;10.38;5.60;;;10.10;98.00;;;;;;5072643;28;20505;-47
2023/05/05 04:46:40;;;;;;;9.38;5.32;;;10.30;98.20;;;;;;5072758;28;20125;-46
2023/05/05 04:49:05;;;;;;;7.88;5.38;;;10.50;98.70;;;;;;5072662;28;20071;-49
2023/05/05 04:51:31;;;;;;;9.55;6.32;;;10.10;99.10;;;;;;5072616;28;20037;-50
2023/05/05 04:53:57;;;;;;;12.70;6.30;;;10.30;99.60;;;;;;5072357;28;20047;-47
2023/05/05 04:56:23;;;;;;;9.45;5.68;;;9.70;99.80;;;;;;5072590;28;20056;-48
2023/05/05 04:58:49;;;;;;;10.48;5.82;;;9.70;99.90;;;;;;5072395;28;20562;-46
2023/05/05 05:01:15;;;;;;;12.48;6.05;;;9.70;99.90;;;;;;5072360;28;20044;-46
2023/05/05 05:03:41;;;;;;;10.10;6.13;;;9.80;99.90;;;;;;5070924;28;20509;-47
2023/05/05 05:06:07;;;;;;;11.40;6.53;;;9.70;99.90;;;;;;5052434;28;20037;-47
2023/05/05 05:08:32;;;;;;;7.93;6.30;;;9.90;99.90;;;;;;5052300;28;20041;-46
2023/05/05 05:10:58;;;;;;;9.20;6.10;;;9.80;99.90;;;;;;5052576;28;20055;-47
2023/05/05 05:13:24;;;;;;;9.48;6.93;;;9.60;99.90;;;;;;5052529;28;20422;-46
2023/05/05 05:15:50;;;;;;;10.57;6.38;;;9.60;99.90;;;;;;5052211;28;20467;-47
2023/05/05 05:18:16;;;;;;;9.48;6.05;;;10.30;99.90;;;;;;5052046;28;20051;-46
2023/05/05 05:20:42;;;;;;;9.43;5.72;;;9.70;99.90;;;;;;5052259;28;20044;-50
2023/05/05 05:23:08;;;;;;;9.95;5.75;;;9.70;99.90;;;;;;5052197;28;20040;-46
2023/05/05 05:25:33;;;;;;;8.40;6.38;;;9.70;99.90;;;;;;5051969;28;20124;-46
2023/05/05 05:27:59;;;;;;;8.60;5.38;;;9.70;99.90;;;;;;5051753;28;20056;-46
2023/05/05 05:30:25;;;;;;;10.00;6.72;;;9.80;99.90;;;;;;5051869;28;20045;-48
2023/05/05 05:32:51;;;;;;;10.32;5.60;;;9.80;99.90;;;;;;5051745;28;20040;-47
2023/05/05 05:35:16;;;;;;;12.80;6.28;;;10.10;99.90;;;;;;5051759;28;20052;-48
2023/05/05 05:37:42;;;;;;;11.07;6.00;;;10.10;99.90;;;;;;5052016;28;20045;-47
2023/05/05 05:40:08;;;;;;;12.25;6.32;;;9.80;99.90;;;;;;5051999;28;20044;-45
2023/05/05 05:42:34;;;;;;;10.07;6.20;;;9.80;99.90;;;;;;5051838;28;20055;-46
2023/05/05 05:45:00;;;;;;;9.27;6.32;;;10.40;99.90;;;;;;5051256;28;20127;-47
2023/05/05 05:47:26;;;;;;;8.07;6.00;;;9.80;99.90;;;;;;5051531;28;20553;-49
2023/05/05 05:49:52;;;;;;;7.50;6.13;;;10.60;99.90;;;;;;5051573;28;20055;-48
2023/05/05 05:52:18;;;;;;;11.93;5.80;;;9.90;99.90;;;;;;5033648;28;20041;-48
2023/05/05 05:54:43;;;;;;;7.50;5.85;;;11.00;99.90;;;;;;5051394;28;20033;-46
2023/05/05 05:57:09;;;;;;;8.50;5.95;;;10.10;99.90;;;;;;5033594;28;20066;-47
2023/05/05 05:59:35;;;;;;;6.75;5.65;;;10.80;99.90;;;;;;5051315;28;20635;-46
2023/05/05 06:02:00;;;;;;;9.27;6.50;;;10.40;99.90;;;;;;5051088;28;20052;-46
2023/05/05 06:04:26;;;;;;;9.05;5.82;;;10.80;99.90;;;;;;5050850;28;20029;-46
2023/05/05 06:06:52;;;;;;;10.68;6.32;;;11.00;99.90;;;;;;5051243;28;20041;-50
2023/05/05 06:09:17;;;;;;;9.43;5.60;;;11.30;99.90;;;;;;5051324;28;20119;-46
2023/05/05 06:11:43;;;;;;;8.23;5.32;;;11.10;99.90;;;;;;5051087;28;20171;-47
2023/05/05 06:14:09;;;;;;;8.02;5.10;;;11.00;99.90;;;;;;5050920;28;20037;-45
2023/05/05 06:16:35;;;;;;;8.88;5.35;;;11.00;99.90;;;;;;5050853;28;20052;-46
2023/05/05 06:19:00;;;;;;;11.85;5.90;;;10.90;99.90;;;;;;5050915;28;20037;-48
2023/05/05 06:21:26;;;;;;;8.18;5.60;;;11.10;99.90;;;;;;5049938;28;20045;-51
2023/05/05 06:23:52;;;;;;;9.40;5.05;;;10.90;99.90;;;;;;5050156;28;20055;-47
2023/05/05 06:26:18;;;;;;;10.23;5.85;;;10.80;99.90;;;;;;5050003;28;20171;-48
2023/05/05 06:28:43;;;;;;;8.55;5.00;;;10.80;99.90;;;;;;5050062;28;20044;-47
2023/05/05 06:31:11;;;;;;;8.25;5.78;;;10.80;99.90;;;;;;5049859;28;20434;-47
2023/05/05 06:33:37;;;;;;;8.02;5.25;;;10.80;99.90;;;;;;5050332;28;20092;-47
2023/05/05 06:36:03;;;;;;;8.35;5.57;;;10.80;99.90;;;;;;5050059;28;20330;-51
2023/05/05 06:38:28;;;;;;;9.55;4.97;;;10.80;99.90;;;;;;5050461;28;20119;-47
2023/05/05 06:40:54;;;;;;;9.55;5.57;;;10.90;99.90;;;;;;5050222;28;20048;-47
2023/05/05 06:43:20;;;;;;;7.60;5.63;;;11.00;99.90;;;;;;5049853;28;20039;-46
2023/05/05 06:45:46;;;;;;;9.60;5.78;;;11.10;99.90;;;;;;5032189;28;20132;-46
2023/05/05 06:48:12;;;;;;;7.93;6.05;;;11.20;99.70;;;;;;5050528;28;20116;-46
2023/05/05 06:50:37;;;;;;;10.20;6.03;;;11.30;99.60;;;;;;5050256;28;20051;-50
2023/05/05 06:53:03;;;;;;;8.52;5.60;;;11.40;99.40;;;;;;5050264;28;20045;-47
2023/05/05 06:55:29;;;;;;;9.27;5.75;;;11.50;99.20;;;;;;5050151;28;20138;-46
2023/05/05 06:57:55;;;;;;;7.57;5.30;;;11.50;99.00;;;;;;5050450;28;20167;-48
2023/05/05 07:00:21;;;;;;;10.68;5.47;;;11.70;98.90;;;;;;5050354;28;20120;-47
2023/05/05 07:02:47;;;;;;;11.13;6.03;;;11.50;98.70;;;;;;5050594;28;20056;-47
2023/05/05 07:05:13;;;;;;;10.32;6.45;;;11.50;98.80;;;;;;5049774;28;20037;-50
2023/05/05 07:07:50;;;;;;;10.65;6.82;;;11.50;98.70;;;;;;5050344;28;20080;-48
2023/05/05 07:10:16;;;;;;;9.27;5.65;;;11.60;98.90;;;;;;5050141;28;20450;-49
2023/05/05 07:12:41;;;;;;;9.13;6.70;;;11.60;98.80;;;;;;5049779;28;20045;-48
2023/05/05 07:15:08;;;;;;;9.25;5.45;;;11.70;98.80;;;;;;5049627;28;20067;-46
2023/05/05 07:17:33;;;;;;;7.38;5.82;;;11.70;98.60;;;;;;5049359;28;20044;-46
2023/05/05 07:19:59;;;;;;;11.52;5.82;;;11.80;98.50;;;;;;5049681;28;20049;-47
2023/05/05 07:22:24;;;;;;;8.05;5.28;;;11.90;98.70;;;;;;5049985;28;20033;-47
2023/05/05 07:24:52;;;;;;;7.50;5.63;;;12.10;98.50;;;;;;5050316;28;20115;-48
2023/05/05 07:27:19;;;;;;;9.00;5.90;;;12.20;98.40;;;;;;5059766;28;20098;-51
2023/05/05 07:29:44;;;;;;;9.15;6.07;;;12.20;98.30;;;;;;5070297;28;20045;-50
2023/05/05 07:32:10;;;;;;;10.90;5.55;;;12.60;98.40;;;;;;5070148;28;20128;-46
2023/05/05 07:34:36;;;;;;;9.75;5.93;;;13.00;98.00;;;;;;5069798;28;20044;-47
2023/05/05 07:37:03;;;;;;;7.45;5.88;;;13.50;97.60;;;;;;5070105;28;20087;-46
2023/05/05 07:39:30;;;;;;;7.50;5.25;;;13.80;97.20;;;;;;5070212;28;20130;-47
2023/05/05 07:41:55;;;;;;;8.60;5.53;;;14.30;96.70;;;;;;5069439;28;20044;-46
2023/05/05 07:44:21;;;;;;;7.25;5.55;;;14.80;96.10;;;;;;5069831;28;20042;-49
2023/05/05 07:46:46;;;;;;;7.70;6.05;;;15.20;95.30;;;;;;5070185;28;20064;-46
2023/05/05 07:49:12;;;;;;;10.02;5.53;;;15.50;94.50;;;;;;5069777;28;20036;-46
2023/05/05 07:51:38;;;;;;;8.02;5.30;;;15.70;94.20;;;;;;5069784;28;20486;-48
2023/05/05 07:54:04;;;;;;;8.68;5.60;;;16.20;93.90;;;;;;5069907;28;20068;-49
2023/05/05 07:56:30;;;;;;;6.43;5.60;;;16.50;93.20;;;;;;5069625;28;20048;-47
2023/05/05 07:58:56;;;;;;;6.95;5.43;;;16.80;93.10;;;;;;5069696;28;20059;-48
2023/05/05 08:01:22;;;;;;;8.80;5.75;;;17.20;93.00;;;;;;5069848;28;20045;-49
2023/05/05 08:03:47;;;;;;;9.98;6.13;;;17.60;94.30;;;;;;5069316;28;20670;-48
2023/05/05 08:06:20;;;;;;;8.20;5.97;;;18.00;92.90;;;;;;5069530;28;20032;-47
2023/05/05 08:08:47;;;;;;;6.60;5.13;;;18.30;91.70;;;;;;5073246;28;20044;-48
2023/05/05 08:11:14;;;;;;;9.23;5.70;;;18.70;91.20;;;;;;5073359;28;20444;-48
2023/05/05 08:13:41;;;;;;;5.53;4.38;;;18.90;91.10;;;;;;5055202;28;20048;-48
2023/05/05 08:16:08;;;;;;;6.85;5.50;;;19.20;92.30;;;;;;5073282;28;20127;-48
2023/05/05 08:18:36;;;;;;;7.63;5.63;;;19.40;90.40;;;;;;5073188;28;20123;-49
2023/05/05 08:21:06;;;;;;;7.32;5.65;;;19.70;90.60;;;;;;5072596;28;20052;-47
2023/05/05 08:23:33;;;;;;;7.30;5.43;;;19.80;86.30;;;;;;5073248;28;20099;-48
2023/05/05 08:25:58;;;;;;;6.57;5.40;;;20.10;86.00;;;;;;5055046;28;20094;-48
2023/05/05 08:28:24;;;;;;;7.45;5.55;;;20.40;84.90;;;;;;5072858;28;20044;-50
2023/05/05 08:30:50;;;;;;;7.45;5.90;;;20.60;84.30;;;;;;5072989;28;20059;-47
2023/05/05 08:33:15;;;;;;;7.45;4.97;;;20.80;83.50;;;;;;5072792;28;20056;-48
2023/05/05 08:35:42;;;;;;;7.78;5.82;;;20.90;82.60;;;;;;5072273;28;20044;-48
2023/05/05 08:38:08;;;;;;;6.53;5.10;;;21.10;81.60;;;;;;5072335;28;20063;-48
2023/05/05 08:40:36;;;;;;;7.15;5.07;;;21.10;80.90;;;;;;5072815;28;20487;-49
2023/05/05 08:43:03;;;;;;;7.80;5.05;;;21.10;80.20;;;;;;5072264;28;20378;-49
2023/05/05 08:45:29;;;;;;;7.93;5.07;;;21.30;79.90;;;;;;5043457;28;20060;-48
2023/05/05 08:48:03;;;;;;;12.20;5.88;;;21.50;78.80;;;;;;5033366;28;20037;-44
2023/05/05 08:50:30;;;;;;;8.98;5.35;;;21.70;78.00;;;;;;5034163;28;20041;-44
2023/05/05 08:53:01;;;;;;;6.65;5.20;;;21.90;77.50;;;;;;5028490;28;20037;-46
2023/05/05 08:55:33;;;;;;;6.97;5.35;;;22.00;77.80;;;;;;5030778;28;20103;-49
2023/05/05 08:58:02;;;;;;;7.72;5.03;;;22.10;77.80;;;;;;5030199;28;20044;-44
2023/05/05 09:00:28;;;;;;;6.97;5.90;;;22.20;77.50;;;;;;5032173;28;20049;-46
2023/05/05 09:02:56;;;;;;;7.28;5.55;;;22.30;77.30;;;;;;5028279;28;20072;-43
2023/05/05 09:05:22;;;;;;;6.68;5.57;;;22.40;75.80;;;;;;5027082;28;20034;-43
2023/05/05 09:07:50;;;;;;;9.88;5.88;;;22.60;75.90;;;;;;5028308;28;20043;-42
2023/05/05 09:10:16;;;;;;;7.45;5.35;;;22.70;75.00;;;;;;5026188;28;20498;-48
2023/05/05 09:12:42;;;;;;;6.80;5.50;;;22.80;74.90;;;;;;5027610;28;20044;-44
2023/05/05 09:15:10;;;;;;;6.90;6.20;;;22.80;75.00;;;;;;5027243;28;20427;-42
2023/05/05 09:17:37;;;;;;;8.10;6.45;;;23.00;74.80;;;;;;5027504;28;20033;-43
2023/05/05 09:20:03;;;;;;;9.45;6.35;;;23.00;74.60;;;;;;5025625;28;20042;-43
2023/05/05 09:22:33;;;;;;;9.50;6.85;;;23.10;73.50;;;;;;5026903;28;20115;-44
2023/05/05 09:24:58;;;;;;;9.80;6.88;;;23.20;73.30;;;;;;5027053;28;20091;-42
2023/05/05 09:27:24;;;;;;;8.85;7.85;;;23.30;73.50;;;;;;5034472;28;20195;-44
2023/05/05 09:29:50;;;;;;;9.48;7.20;;;23.30;72.70;;;;;;5031297;28;20072;-45
2023/05/05 09:32:17;;;;;;;10.85;6.40;;;23.30;73.10;;;;;;5044114;28;20025;-44
2023/05/05 09:34:55;;;;;;;7.63;6.57;;;23.40;73.10;;;;;;5044367;28;20068;-49
2023/05/05 09:37:29;;;;;;;7.90;6.72;;;23.30;73.10;;;;;;5022493;28;20373;-50
2023/05/05 09:39:56;;;;;;;11.45;7.10;;;23.50;72.40;;;;;;5025494;28;20073;-49
2023/05/05 09:42:22;;;;;;;9.95;6.93;;;23.60;72.50;;;;;;5044249;28;20041;-44
2023/05/05 09:44:48;;;;;;;13.05;7.20;;;23.70;72.00;;;;;;5044577;28;20055;-44
2023/05/05 09:47:14;;;;;;;10.32;7.65;;;23.70;71.40;;;;;;5013801;28;20119;-51
2023/05/05 09:49:40;;;;;;;9.45;7.80;;;23.70;70.90;;;;;;5038252;28;20208;-49
2023/05/05 09:52:15;;;;;;;9.20;7.35;;;23.90;71.60;;;;;;5043597;28;20084;-44
2023/05/05 09:54:44;;;;;;;10.00;7.88;;;24.00;71.60;;;;;;5035155;28;20041;-43
2023/05/05 09:57:31;;;;;;;8.38;7.13;;;23.80;70.70;;;;;;5033968;28;20044;-42
2023/05/05 09:59:59;;;;;;;8.77;6.82;;;23.50;69.60;;;;;;5031207;28;20133;-42
2023/05/05 10:02:35;;;;;;;13.48;8.40;;;23.40;71.00;;;;;;5041018;28;20166;-42
2023/05/05 10:05:12;;;;;;;12.38;7.90;;;23.20;71.00;;;;;;5038311;28;20063;-42
2023/05/05 10:07:40;;;;;;;10.85;7.32;;;23.20;71.40;;;;;;5043972;28;20621;-43
2023/05/05 10:10:15;;;;;;;10.75;7.25;;;23.10;72.00;;;;;;5042670;28;20040;-48
2023/05/05 10:12:41;;;;;;;7.82;7.07;;;22.80;72.00;;;;;;5028613;28;20048;-48
2023/05/05 10:15:09;;;;;;;9.68;7.80;;;22.60;72.60;;;;;;5029757;28;20032;-50
2023/05/05 10:17:48;;;;;;;8.60;7.60;;;22.50;73.00;;;;;;5042666;28;20473;-46
2023/05/05 10:20:14;;;;;;;9.65;7.90;;;22.50;73.50;;;;;;5042619;28;20041;-45
2023/05/05 10:22:49;;;;;;;12.23;8.82;;;22.40;73.90;;;;;;5014850;28;20059;-44
2023/05/05 10:25:16;;;;;;;8.88;7.97;;;22.30;73.40;;;;;;5033321;28;20033;-44
2023/05/05 10:27:53;;;;;;;10.40;9.27;;;22.30;74.10;;;;;;5056213;28;20113;-48
2023/05/05 10:30:33;;;;;;;9.82;8.60;;;22.30;74.30;;;;;;5062968;28;20048;-49
2023/05/05 10:33:28;;;;;;;11.25;8.95;;;22.30;73.60;;;;;;5062485;28;20040;-52
2023/05/05 10:35:59;;;;;;;9.52;8.52;;;22.30;72.70;;;;;;5060866;28;20052;-43
2023/05/05 10:38:29;;;;;;;10.88;8.95;;;22.30;73.90;;;;;;5065645;28;20059;-48
2023/05/05 10:40:57;;;;;;;11.98;9.25;;;22.30;74.30;;;;;;5070623;28;20078;-48
2023/05/05 10:43:23;;;;;;;11.25;9.73;;;22.20;74.80;;;;;;5070479;28;20048;-47
2023/05/05 10:45:49;;;;;;;10.02;8.70;;;22.10;75.30;;;;;;5070214;28;20036;-48
2023/05/05 10:48:24;;;;;;;10.05;8.95;;;22.00;76.10;;;;;;5069864;28;20120;-44
2023/05/05 10:50:57;;;;;;;10.82;8.68;;;22.00;77.20;;;;;;5070050;28;20453;-45
2023/05/05 10:53:38;;;;;;;11.88;8.55;;;21.90;77.20;;;;;;5069996;28;20441;-46
2023/05/05 10:56:29;;;;;;;10.25;8.35;;;21.90;77.90;;;;;;5069957;28;20052;-46
2023/05/05 10:58:54;;;;;;;13.73;10.32;;;21.80;78.30;;;;;;5069273;28;20119;-46
2023/05/05 11:01:34;;;;;;;10.77;9.52;;;21.70;78.90;;;;;;5069074;28;20210;-45
2023/05/05 11:04:15;;;;;;;11.25;9.27;;;21.70;81.00;;;;;;5069273;28;20497;-46
2023/05/05 11:07:07;;;;;;;11.75;9.30;;;21.50;82.20;;;;;;5069867;28;20040;-45
2023/05/05 11:09:40;;;;;;;11.55;8.63;;;21.50;83.10;;;;;;5069759;28;20044;-46
2023/05/05 11:12:07;;;;;;;11.77;9.02;;;21.40;83.70;;;;;;5069640;28;20056;-47
2023/05/05 11:14:33;;;;;;;10.82;7.53;;;21.40;84.90;;;;;;5070014;28;20043;-45
2023/05/05 11:16:59;;;;;;;10.45;7.28;;;21.40;84.80;;;;;;5069677;28;20487;-46
2023/05/05 11:19:44;;;;;;;9.32;7.45;;;21.50;84.30;;;;;;5069582;28;20047;-46
2023/05/05 11:22:10;;;;;;;9.10;8.15;;;21.50;84.20;;;;;;5070049;28;20053;-45
2023/05/05 11:24:38;;;;;;;9.05;8.07;;;21.50;83.90;;;;;;5070410;28;20048;-46
2023/05/05 11:27:05;;;;;;;11.77;8.70;;;21.60;83.10;;;;;;5070037;28;20057;-43
2023/05/05 11:30:07;;;;;;;10.48;8.38;;;21.60;82.60;;;;;;5070064;28;20042;-44
2023/05/05 11:32:32;;;;;;;8.82;6.45;;;21.60;81.10;;;;;;5007700;28;20046;-45
2023/05/05 11:35:00;;;;;;;7.30;5.85;;;21.60;81.60;;;;;;5057471;28;20060;-43
2023/05/05 11:37:29;;;;;;;8.05;6.45;;;21.60;81.10;;;;;;5069798;28;20076;-47
2023/05/05 11:40:06;;;;;;;9.75;6.55;;;21.70;81.00;;;;;;5069805;28;20044;-44
2023/05/05 11:42:32;;;;;;;7.32;5.93;;;21.70;81.30;;;;;;5071817;28;20044;-44
2023/05/05 11:44:58;;;;;;;7.72;6.95;;;21.60;81.60;;;;;;5074001;28;20040;-43
2023/05/05 11:47:26;;;;;;;8.02;6.10;;;21.60;81.30;;;;;;5074307;28;20044;-43
2023/05/05 11:49:51;;;;;;;8.98;6.65;;;21.60;81.10;;;;;;5074296;28;20036;-44
2023/05/05 11:52:17;;;;;;;8.43;6.43;;;21.70;80.10;;;;;;5074248;28;20090;-43
2023/05/05 11:54:46;;;;;;;9.10;6.65;;;21.70;79.80;;;;;;5073851;28;20368;-44
2023/05/05 11:57:19;;;;;;;8.02;6.80;;;21.70;80.10;;;;;;5073841;28;20083;-46
2023/05/05 12:00:05;;;;;;;10.43;6.72;;;21.60;80.50;;;;;;5073807;28;20041;-44
2023/05/05 12:02:30;;;;;;;8.55;4.55;;;21.60;80.40;;;;;;5073896;28;20036;-46
2023/05/05 12:04:58;;;;;;;3.78;2.00;;;21.40;81.00;;;;;;5073498;28;20600;-44
2023/05/05 12:07:26;;;;;;;5.32;2.25;;;21.30;81.30;;;;;;5073511;28;20040;-44
2023/05/05 12:09:52;;;;;;;3.15;2.20;;;21.20;81.50;;;;;;5073527;28;20101;-44
2023/05/05 12:12:19;;;;;;;6.47;3.50;;;21.10;81.90;;;;;;5073388;28;20044;-45
2023/05/05 12:14:51;;;;;;;6.70;5.32;;;20.90;82.30;;;;;;5073171;28;20040;-44
2023/05/05 12:17:21;;;;;;;7.47;5.35;;;20.90;82.80;;;;;;5073286;28;20089;-45
2023/05/05 12:19:51;;;;;;;6.93;3.95;;;20.90;83.30;;;;;;5073281;28;20040;-43
2023/05/05 12:22:18;;;;;;;7.85;3.90;;;20.80;83.30;;;;;;5073375;28;20056;-44
2023/05/05 12:24:44;;;;;;;7.75;4.95;;;20.80;83.30;;;;;;5073420;28;20087;-43
2023/05/05 12:27:10;;;;;;;7.05;4.95;;;20.80;83.40;;;;;;5073061;28;20675;-48
2023/05/05 12:29:36;;;;;;;8.50;4.55;;;20.80;83.50;;;;;;5073320;28;20044;-44
2023/05/05 12:32:03;;;;;;;9.25;5.25;;;20.80;83.60;;;;;;5073393;28;20079;-42
2023/05/05 12:34:30;;;;;;;7.25;5.70;;;20.60;83.50;;;;;;5073481;28;20045;-44
2023/05/05 12:36:56;;;;;;;6.88;5.15;;;20.50;83.50;;;;;;5073287;28;20150;-44
2023/05/05 12:39:22;;;;;;;9.50;5.88;;;20.50;83.80;;;;;;5073111;28;20044;-43
2023/05/05 12:41:48;;;;;;;11.27;6.30;;;20.50;84.20;;;;;;5072975;28;20044;-44
2023/05/05 12:44:14;;;;;;;7.32;5.60;;;20.40;84.90;;;;;;5073227;28;20072;-46
2023/05/05 12:46:47;;;;;;;10.15;7.45;;;20.40;84.80;;;;;;5073149;28;20072;-44
2023/05/05 12:49:12;;;;;;;10.15;6.40;;;20.30;85.20;;;;;;5073133;28;20040;-46
2023/05/05 12:51:51;;;;;;;7.85;5.95;;;20.30;85.30;;;;;;5073059;28;20166;-45
2023/05/05 12:54:17;;;;;;;8.65;5.50;;;20.20;85.90;;;;;;5072527;28;20037;-47